WetterOnline ( https://www.wetteronline.de )

Wetter aktuell Gottfrieding

Aktuelles Wetter: Gottfrieding (350m)

6-stündlich | Neueste Meldungen
Ortszeit Temperatur Wetter
Mi, 03.06. 2:00 10.7° C wolkig
Di, 02.06. 20:00 22.1° C wolkenlos
Di, 02.06. 14:00 22.3° C wolkenlos
Di, 02.06. 8:00 15.9° C wolkenlos
Di, 02.06. 2:00 9.6° C wolkenlos
Mo, 01.06. 20:00 21.9° C wolkenlos
Mo, 01.06. 14:00 21.0° C wolkig
Mo, 01.06. 8:00 11.2° C wolkenlos
Ortszeit Temperatur Wetter
Mi, 03.06. 2:00 10.7° C wolkig
Mi, 03.06. 1:50 10.7° C wolkig
Mi, 03.06. 1:40 11.0° C wolkig
Mi, 03.06. 1:30 10.6° C wolkig
Mi, 03.06. 1:20 10.6° C wolkig
Mi, 03.06. 1:10 10.9° C wolkig
Mi, 03.06. 1:00 10.4° C wolkenlos
Mi, 03.06. 0:30 12.1° C leicht bewölkt
Mi, 03.06. 0:00 12.3° C wolkig
Di, 02.06. 23:30 12.5° C wolkenlos
Di, 02.06. 23:00 13.4° C wolkenlos
Ortszeit Relative Feuchte Sichtweite
Mi, 03.06. 2:00 86% 65 km
Di, 02.06. 20:00 37% >70 km
Di, 02.06. 14:00 37% 55 km
Di, 02.06. 8:00 66% 55 km
Di, 02.06. 2:00 93% 50 km
Mo, 01.06. 20:00 36% 65 km
Mo, 01.06. 14:00 41% >70 km
Mo, 01.06. 8:00 83% 35 km
Ortszeit Relative Feuchte Sichtweite
Mi, 03.06. 2:00 86% 65 km
Mi, 03.06. 1:50 86% -
Mi, 03.06. 1:40 86% -
Mi, 03.06. 1:30 85% 65 km
Mi, 03.06. 1:20 85% -
Mi, 03.06. 1:10 87% -
Mi, 03.06. 1:00 87% 65 km
Mi, 03.06. 0:30 83% 60 km
Mi, 03.06. 0:00 77% 50 km
Di, 02.06. 23:30 76% >70 km
Di, 02.06. 23:00 73% >70 km
Ortszeit Niederschlagsmenge Niederschlagsart
Mi, 03.06. 2:00 0.0 l/m2 in 6 Std. -
Di, 02.06. 20:00 0.0 l/m2 in 12 Std. -
Di, 02.06. 14:00 0.0 l/m2 in 6 Std. -
Di, 02.06. 8:00 0.0 l/m2 in 12 Std. -
Di, 02.06. 2:00 0.0 l/m2 in 6 Std. -
Mo, 01.06. 20:00 0.0 l/m2 in 12 Std. -
Mo, 01.06. 14:00 0.0 l/m2 in 6 Std. -
Mo, 01.06. 8:00 0.1 l/m2 in 12 Std. -
Ortszeit Niederschlagsmenge Niederschlagsart
Mi, 03.06. 2:00 0.0 l/m2 in 1 Std. -
Mi, 03.06. 1:50 keine Meldung -
Mi, 03.06. 1:40 keine Meldung -
Mi, 03.06. 1:30 0.0 l/m2 in 1 Std. -
Mi, 03.06. 1:20 keine Meldung -
Mi, 03.06. 1:10 keine Meldung -
Mi, 03.06. 1:00 0.0 l/m2 in 1 Std. -
Mi, 03.06. 0:30 0.0 l/m2 in 1 Std. -
Mi, 03.06. 0:00 0.0 l/m2 in 1 Std. -
Di, 02.06. 23:30 0.0 l/m2 in 1 Std. -
Di, 02.06. 23:00 0.0 l/m2 in 1 Std. -
Ortszeit Stärke Spitze Richtung
km/h Bft. km/h Grad Sektor
Mi, 03.06. 2:00 6 1 13 100° O
Di, 02.06. 20:00 7 2 25 320° NW
Di, 02.06. 14:00 9 2 26 300° NW
Di, 02.06. 8:00 2 1 6 160° S
Di, 02.06. 2:00 4 1 14 250° W
Mo, 01.06. 20:00 7 2 22 10° N
Mo, 01.06. 14:00 7 2 22 130° SO
Mo, 01.06. 8:00 4 1 7 270° W
Ortszeit Stärke Spitze Richtung
km/h Bft. km/h Grad Sektor
Mi, 03.06. 2:00 6 1 13 100° O
Mi, 03.06. 1:50 6 1 - 100° O
Mi, 03.06. 1:40 6 1 - 90° O
Mi, 03.06. 1:30 7 2 11 60° NO
Mi, 03.06. 1:20 7 2 - 60° NO
Mi, 03.06. 1:10 2 1 - 190° S
Mi, 03.06. 1:00 4 1 7 210° SW
Mi, 03.06. 0:30 4 1 7 170° S
Mi, 03.06. 0:00 4 1 7 240° SW
Di, 02.06. 23:30 7 2 7 230° SW
Di, 02.06. 23:00 4 1 7 220° SW
Ortszeit Untergrenze Bedeckung Gattung
total tief tief mittel hoch
Mi, 03.06. 2:00 7800 m 7/8 0/8 - - -
Di, 02.06. 20:00 - 0/8 0/8 - - -
Di, 02.06. 14:00 - 0/8 0/8 - - -
Di, 02.06. 8:00 - 0/8 0/8 - - -
Di, 02.06. 2:00 - 0/8 0/8 - - -
Mo, 01.06. 20:00 - 0/8 0/8 - - -
Mo, 01.06. 14:00 1800 m 7/8 7/8 - - -
Mo, 01.06. 8:00 - 0/8 0/8 - - -
Ortszeit Bedeckungsgrad in Achtel und Wolkenuntergrenze
Mi, 03.06. 2:00 7(7800m) 7(9000m)
Mi, 03.06. 1:50 7(7800m) 7(9000m)
Mi, 03.06. 1:40 7(8100m)
Mi, 03.06. 1:30 3(2400m) 7(8100m)
Mi, 03.06. 1:20 3(2400m) 7(8100m)
Mi, 03.06. 1:10 4(2400m) 6(8400m)
Mi, 03.06. 1:00 1(2400m) 4(8400m)
Mi, 03.06. 0:30 4(2700m)
Mi, 03.06. 0:00 5(2400m)
Di, 02.06. 23:30 keine Wolken
Di, 02.06. 23:00 keine Wolken
Ortszeit Luftdruck NN (hPa) Tendenz (hPa in 3 Std.)
Mi, 03.06. 2:00 1012 - 0,8
Di, 02.06. 20:00 1012 - 1,7
Di, 02.06. 14:00 1016 - 1,5
Di, 02.06. 8:00 1019 + 0,6
Di, 02.06. 2:00 1020 - 0,1
Mo, 01.06. 20:00 1017 - 0,7
Mo, 01.06. 14:00 1020 - 1,2
Mo, 01.06. 8:00 1022 + 0,7
Ortszeit Luftdruck NN (hPa) Tendenz (hPa in 3 Std.)
Mi, 03.06. 2:00 1012 - 0,8
Mi, 03.06. 1:50 1012 keine Meldung
Mi, 03.06. 1:40 1012 keine Meldung
Mi, 03.06. 1:30 1012 - 0,6
Mi, 03.06. 1:20 1012 keine Meldung
Mi, 03.06. 1:10 1012 keine Meldung
Mi, 03.06. 1:00 1013 - 0,6
Mi, 03.06. 0:30 1012 - 0,5
Mi, 03.06. 0:00 1012 - 0,3
Di, 02.06. 23:30 1012 - 0,4
Di, 02.06. 23:00 1013 - 0,3
Ortszeit Schneehöhe (cm)
Mi, 03.06. 2:00 -
Di, 02.06. 20:00 -
Di, 02.06. 14:00 -
Di, 02.06. 8:00 -
Di, 02.06. 2:00 -
Mo, 01.06. 20:00 -
Mo, 01.06. 14:00 -
Mo, 01.06. 8:00 -
Ortszeit Schneehöhe (cm)
Mi, 03.06. 2:00 -
Mi, 03.06. 1:50 -
Mi, 03.06. 1:40 -
Mi, 03.06. 1:30 -
Mi, 03.06. 1:20 -
Mi, 03.06. 1:10 -
Mi, 03.06. 1:00 -
Mi, 03.06. 0:30 -
Mi, 03.06. 0:00 -
Di, 02.06. 23:30 -
Di, 02.06. 23:00 -
Link zu dieser Seite / Seite empfehlen

Das Wetter in ...